createdAt,value
2022-10-02T00:02:21.669Z,16.70
2022-10-02T00:07:52.173Z,16.70
2022-10-02T00:13:02.289Z,16.80
2022-10-02T00:18:36.978Z,16.80
2022-10-02T00:23:54.399Z,16.80
2022-10-02T00:29:22.549Z,16.80
2022-10-02T00:35:24.955Z,16.80
2022-10-02T00:40:58.709Z,16.80
2022-10-02T00:46:15.863Z,16.80
2022-10-02T00:51:26.713Z,16.80
2022-10-02T00:57:18.164Z,16.80
2022-10-02T01:02:59.868Z,16.80
2022-10-02T01:08:17.342Z,16.80
2022-10-02T01:13:24.197Z,16.80
2022-10-02T01:18:32.123Z,16.80
2022-10-02T01:24:08.659Z,16.80
2022-10-02T01:29:15.933Z,16.80
2022-10-02T01:34:20.457Z,16.80
2022-10-02T01:39:25.497Z,16.80
2022-10-02T01:44:37.382Z,16.80
2022-10-02T01:50:16.251Z,16.80
2022-10-02T01:55:42.967Z,16.80
2022-10-02T02:01:25.645Z,16.80
2022-10-02T02:06:57.576Z,16.80
2022-10-02T02:12:46.311Z,16.80
2022-10-02T02:18:24.881Z,16.80
2022-10-02T02:23:32.397Z,16.80
2022-10-02T02:28:41.778Z,16.80
2022-10-02T02:33:54.731Z,16.80
2022-10-02T02:39:08.797Z,16.80
2022-10-02T02:44:17.519Z,16.90
2022-10-02T02:49:22.159Z,16.90
2022-10-02T02:54:54.532Z,16.90
2022-10-02T03:00:07.049Z,16.90
2022-10-02T03:05:17.159Z,16.90
2022-10-02T03:10:54.843Z,16.90
2022-10-02T03:16:59.728Z,16.90
2022-10-02T03:22:30.597Z,16.90
2022-10-02T03:28:11.785Z,16.90
2022-10-02T03:33:20.598Z,16.80
2022-10-02T03:38:28.130Z,16.80
2022-10-02T03:43:35.495Z,16.80
2022-10-02T03:48:41.727Z,16.90
2022-10-02T03:53:44.920Z,16.90
2022-10-02T03:58:55.092Z,16.90
2022-10-02T04:04:22.327Z,16.90
2022-10-02T04:10:03.997Z,16.90
2022-10-02T04:15:36.220Z,16.90
2022-10-02T04:21:30.046Z,16.90
2022-10-02T04:26:59.889Z,16.80
2022-10-02T04:32:14.143Z,16.80
2022-10-02T04:37:41.861Z,16.70
2022-10-02T04:43:20.607Z,16.70
2022-10-02T04:48:52.636Z,16.70
2022-10-02T04:54:47.489Z,16.70
2022-10-02T05:00:17.634Z,16.70
2022-10-02T05:11:46.697Z,16.70
2022-10-02T05:23:35.536Z,16.60
2022-10-02T05:29:18.912Z,16.70
2022-10-02T05:34:49.428Z,16.60
2022-10-02T05:46:22.597Z,16.60
2022-10-02T05:57:37.103Z,16.60
2022-10-02T06:03:05.188Z,16.50
2022-10-02T06:08:20.661Z,16.50
2022-10-02T06:14:02.321Z,16.50
2022-10-02T06:19:21.774Z,16.50
2022-10-02T06:24:33.092Z,16.50
2022-10-02T06:29:57.366Z,16.50
2022-10-02T06:35:07.723Z,16.50
2022-10-02T06:40:32.479Z,16.50
2022-10-02T06:46:18.013Z,16.50
2022-10-02T06:51:43.435Z,16.50
2022-10-02T06:57:12.137Z,16.50
2022-10-02T07:02:39.778Z,16.50
2022-10-02T07:08:20.025Z,16.50
2022-10-02T07:13:58.419Z,16.60
2022-10-02T07:19:17.864Z,16.60
2022-10-02T07:24:42.449Z,16.60
2022-10-02T07:30:19.601Z,16.60
2022-10-02T07:36:02.018Z,16.60
2022-10-02T07:41:40.004Z,16.60
2022-10-02T07:47:08.888Z,16.60
2022-10-02T07:52:37.190Z,16.70
2022-10-02T07:57:58.322Z,16.70
2022-10-02T08:03:19.611Z,16.80
2022-10-02T08:08:31.560Z,16.90
2022-10-02T08:13:43.640Z,17.00
2022-10-02T08:19:00.232Z,17.00
2022-10-02T08:24:18.682Z,17.20
2022-10-02T08:29:40.765Z,17.30
2022-10-02T08:34:45.484Z,17.40
2022-10-02T08:40:24.425Z,17.30
2022-10-02T08:45:47.240Z,17.20
2022-10-02T08:51:13.303Z,17.30
2022-10-02T08:56:27.918Z,17.40
2022-10-02T09:01:45.141Z,17.60
2022-10-02T09:07:08.526Z,17.80
2022-10-02T09:12:21.625Z,18.00
2022-10-02T09:17:52.228Z,18.00
2022-10-02T09:23:18.921Z,18.10
2022-10-02T09:28:55.037Z,18.30
2022-10-02T09:34:21.551Z,18.60
2022-10-02T09:40:01.329Z,18.40
2022-10-02T09:45:17.424Z,18.10
2022-10-02T09:50:47.986Z,17.90
2022-10-02T09:56:11.140Z,17.70
2022-10-02T10:01:25.797Z,17.40
2022-10-02T10:07:06.061Z,17.40
2022-10-02T10:12:52.516Z,17.40
2022-10-02T10:18:21.287Z,17.40
2022-10-02T10:24:18.618Z,17.50
2022-10-02T10:30:01.148Z,17.80
2022-10-02T10:35:31.929Z,17.80
2022-10-02T10:40:52.042Z,17.80
2022-10-02T10:46:20.143Z,18.00
2022-10-02T10:51:48.298Z,18.40
2022-10-02T10:56:59.200Z,18.70
2022-10-02T11:02:29.861Z,18.90
2022-10-02T11:07:58.353Z,19.50
2022-10-02T11:13:21.927Z,19.50
2022-10-02T11:19:21.601Z,19.30
2022-10-02T11:25:02.364Z,19.70
2022-10-02T11:30:12.517Z,19.90
2022-10-02T11:35:15.792Z,19.90
2022-10-02T11:40:26.232Z,19.90
2022-10-02T11:45:55.703Z,20.10
2022-10-02T11:51:10.474Z,19.90
2022-10-02T11:56:31.483Z,19.50
2022-10-02T12:01:41.747Z,19.40
2022-10-02T12:07:41.800Z,19.50
2022-10-02T12:13:02.741Z,19.50
2022-10-02T12:18:21.662Z,19.50
2022-10-02T12:23:59.356Z,19.70
2022-10-02T12:29:06.817Z,19.60
2022-10-02T12:34:48.809Z,19.60
2022-10-02T12:40:06.562Z,19.30
2022-10-02T12:45:34.984Z,19.20
2022-10-02T12:51:11.061Z,19.70
2022-10-02T12:56:41.411Z,20.00
2022-10-02T13:02:55.984Z,20.00
2022-10-02T13:08:05.954Z,19.80
2022-10-02T13:13:25.523Z,19.60
2022-10-02T13:18:43.376Z,19.30
2022-10-02T13:24:08.535Z,19.20
2022-10-02T13:29:18.688Z,19.10
2022-10-02T13:34:27.047Z,18.80
2022-10-02T13:39:36.187Z,18.50
2022-10-02T13:45:16.557Z,18.20
2022-10-02T13:50:35.718Z,17.90
2022-10-02T13:55:55.754Z,17.50
2022-10-02T14:01:30.586Z,17.40
2022-10-02T14:06:52.895Z,17.10
2022-10-02T14:12:28.009Z,17.00
2022-10-02T14:17:58.442Z,17.10
2022-10-02T14:23:32.411Z,17.00
2022-10-02T14:28:44.794Z,16.80
2022-10-02T14:33:53.894Z,16.60
2022-10-02T14:39:05.065Z,16.50
2022-10-02T14:44:20.704Z,16.60
2022-10-02T14:49:43.197Z,16.70
2022-10-02T14:55:24.315Z,16.80
2022-10-02T15:00:35.483Z,16.80
2022-10-02T15:06:04.440Z,16.60
2022-10-02T15:11:31.608Z,16.70
2022-10-02T15:17:15.824Z,16.80
2022-10-02T15:22:30.339Z,16.80
2022-10-02T15:27:41.469Z,16.90
2022-10-02T15:33:14.888Z,17.00
2022-10-02T15:38:19.581Z,17.10
2022-10-02T15:43:30.576Z,17.00
2022-10-02T15:49:09.111Z,17.00
2022-10-02T15:54:39.502Z,17.10
2022-10-02T16:00:17.885Z,17.00
2022-10-02T16:05:20.639Z,16.90
2022-10-02T16:10:30.531Z,16.70
2022-10-02T16:15:50.143Z,16.60
2022-10-02T16:21:37.212Z,16.60
2022-10-02T16:27:00.704Z,16.60
2022-10-02T16:32:34.517Z,16.50
2022-10-02T16:37:55.730Z,16.40
2022-10-02T16:43:25.669Z,16.40
2022-10-02T16:49:02.911Z,16.40
2022-10-02T16:54:40.134Z,16.20
2022-10-02T17:00:09.759Z,16.10
2022-10-02T17:05:19.132Z,16.00
2022-10-02T17:10:29.482Z,15.90
2022-10-02T17:15:48.196Z,15.90
2022-10-02T17:20:59.551Z,15.90
2022-10-02T17:26:05.985Z,15.90
2022-10-02T17:31:18.282Z,15.90
2022-10-02T17:36:35.426Z,15.80
2022-10-02T17:41:53.543Z,15.90
2022-10-02T17:47:30.861Z,15.90
2022-10-02T17:53:17.436Z,15.90
2022-10-02T17:58:32.943Z,15.80
2022-10-02T18:04:03.027Z,15.80
2022-10-02T18:09:15.533Z,15.80
2022-10-02T18:14:35.956Z,15.80
2022-10-02T18:19:47.110Z,15.80
2022-10-02T18:25:19.327Z,15.80
2022-10-02T18:30:29.276Z,15.80
2022-10-02T18:35:57.469Z,15.80
2022-10-02T18:41:21.098Z,15.90
2022-10-02T18:46:33.763Z,15.90
2022-10-02T18:52:07.549Z,15.80
2022-10-02T18:57:09.698Z,15.90
2022-10-02T19:02:50.128Z,15.90
2022-10-02T19:08:04.465Z,15.90
2022-10-02T19:13:17.996Z,15.90
2022-10-02T19:18:29.199Z,15.90
2022-10-02T19:23:48.939Z,15.90
2022-10-02T19:28:59.457Z,15.90
2022-10-02T19:34:17.499Z,15.90
2022-10-02T19:39:31.807Z,15.90
2022-10-02T19:44:39.682Z,15.90
2022-10-02T19:49:43.556Z,15.80
2022-10-02T19:55:16.568Z,15.80
2022-10-02T20:00:21.925Z,15.80
2022-10-02T20:05:27.852Z,15.70
2022-10-02T20:16:44.633Z,15.60
2022-10-02T20:21:59.490Z,15.50
2022-10-02T20:27:54.720Z,15.40
2022-10-02T20:33:30.849Z,15.30
2022-10-02T20:38:45.981Z,15.30
2022-10-02T20:44:02.593Z,15.30
2022-10-02T20:49:52.766Z,15.30
2022-10-02T20:55:37.493Z,15.30
2022-10-02T21:01:07.043Z,15.30
2022-10-02T21:06:37.697Z,15.30
2022-10-02T21:11:59.408Z,15.40
2022-10-02T21:17:31.051Z,15.50
2022-10-02T21:23:13.858Z,15.60
2022-10-02T21:28:47.020Z,15.70
2022-10-02T21:34:13.551Z,15.70
2022-10-02T21:39:58.850Z,15.70
2022-10-02T21:45:38.430Z,15.70
2022-10-02T21:51:22.265Z,15.70
2022-10-02T21:57:04.988Z,15.70
2022-10-02T22:02:37.940Z,15.70
2022-10-02T22:08:13.658Z,15.70
2022-10-02T22:13:52.300Z,15.70
2022-10-02T22:19:21.851Z,15.70
2022-10-02T22:24:55.154Z,15.70
2022-10-02T22:29:57.892Z,15.70
2022-10-02T22:35:08.049Z,15.70
2022-10-02T22:40:16.756Z,15.60
2022-10-02T22:45:43.082Z,15.60
2022-10-02T22:51:05.843Z,15.60
2022-10-02T22:57:05.520Z,15.60
2022-10-02T23:02:51.293Z,15.60
2022-10-02T23:08:42.551Z,15.50
2022-10-02T23:14:38.548Z,15.50
2022-10-02T23:20:04.427Z,15.50
2022-10-02T23:25:44.774Z,15.50
2022-10-02T23:31:24.198Z,15.50
2022-10-02T23:36:56.780Z,15.50
2022-10-02T23:42:29.613Z,15.50
2022-10-02T23:47:56.229Z,15.40
2022-10-02T23:53:19.445Z,15.40
